sensor_id;sensor_type;location;lat;lon;timestamp;P1;durP1;ratioP1;P2;durP2;ratioP2
41923;SDS011;27613;48.116;11.656;2024-03-02T00:00:14;9.07;;;5.57;;
41923;SDS011;27613;48.116;11.656;2024-03-02T00:02:43;8.48;;;6.00;;
41923;SDS011;27613;48.116;11.656;2024-03-02T00:05:12;11.13;;;7.07;;
41923;SDS011;27613;48.116;11.656;2024-03-02T00:07:41;14.07;;;6.78;;
41923;SDS011;27613;48.116;11.656;2024-03-02T00:10:09;8.90;;;5.80;;
41923;SDS011;27613;48.116;11.656;2024-03-02T00:12:37;7.57;;;5.95;;
41923;SDS011;27613;48.116;11.656;2024-03-02T00:15:06;8.40;;;6.20;;
41923;SDS011;27613;48.116;11.656;2024-03-02T00:17:52;7.75;;;5.25;;
41923;SDS011;27613;48.116;11.656;2024-03-02T00:20:18;9.32;;;5.65;;
41923;SDS011;27613;48.116;11.656;2024-03-02T00:22:47;13.15;;;5.80;;
41923;SDS011;27613;48.116;11.656;2024-03-02T00:25:13;9.25;;;5.60;;
41923;SDS011;27613;48.116;11.656;2024-03-02T00:27:39;10.40;;;5.38;;
41923;SDS011;27613;48.116;11.656;2024-03-02T00:30:06;7.20;;;5.25;;
41923;SDS011;27613;48.116;11.656;2024-03-02T00:33:01;9.63;;;5.53;;
41923;SDS011;27613;48.116;11.656;2024-03-02T00:35:27;10.73;;;5.70;;
41923;SDS011;27613;48.116;11.656;2024-03-02T00:37:52;7.72;;;5.32;;
41923;SDS011;27613;48.116;11.656;2024-03-02T00:40:19;8.07;;;5.78;;
41923;SDS011;27613;48.116;11.656;2024-03-02T00:42:45;7.45;;;5.43;;
41923;SDS011;27613;48.116;11.656;2024-03-02T00:45:10;8.55;;;5.45;;
41923;SDS011;27613;48.116;11.656;2024-03-02T00:47:40;9.20;;;5.20;;
41923;SDS011;27613;48.116;11.656;2024-03-02T00:50:05;8.25;;;5.28;;
41923;SDS011;27613;48.116;11.656;2024-03-02T00:52:33;8.50;;;5.55;;
41923;SDS011;27613;48.116;11.656;2024-03-02T00:54:59;8.07;;;5.15;;
41923;SDS011;27613;48.116;11.656;2024-03-02T00:57:25;11.27;;;5.80;;
41923;SDS011;27613;48.116;11.656;2024-03-02T00:59:59;8.82;;;5.90;;
41923;SDS011;27613;48.116;11.656;2024-03-02T01:02:25;8.20;;;5.30;;
41923;SDS011;27613;48.116;11.656;2024-03-02T01:04:50;8.40;;;5.78;;
41923;SDS011;27613;48.116;11.656;2024-03-02T01:07:16;8.85;;;5.25;;
41923;SDS011;27613;48.116;11.656;2024-03-02T01:09:41;7.72;;;5.07;;
41923;SDS011;27613;48.116;11.656;2024-03-02T01:12:07;8.50;;;5.28;;
41923;SDS011;27613;48.116;11.656;2024-03-02T01:14:32;8.77;;;5.40;;
41923;SDS011;27613;48.116;11.656;2024-03-02T01:16:58;6.45;;;4.78;;
41923;SDS011;27613;48.116;11.656;2024-03-02T01:19:23;8.60;;;5.10;;
41923;SDS011;27613;48.116;11.656;2024-03-02T01:21:49;9.02;;;5.32;;
41923;SDS011;27613;48.116;11.656;2024-03-02T01:24:15;7.97;;;5.28;;
41923;SDS011;27613;48.116;11.656;2024-03-02T01:26:41;5.95;;;4.40;;
41923;SDS011;27613;48.116;11.656;2024-03-02T01:29:07;7.97;;;5.35;;
41923;SDS011;27613;48.116;11.656;2024-03-02T01:31:33;7.07;;;4.95;;
41923;SDS011;27613;48.116;11.656;2024-03-02T01:33:58;7.93;;;5.10;;
41923;SDS011;27613;48.116;11.656;2024-03-02T01:36:24;7.57;;;5.30;;
41923;SDS011;27613;48.116;11.656;2024-03-02T01:38:49;7.95;;;5.07;;
41923;SDS011;27613;48.116;11.656;2024-03-02T01:41:15;6.82;;;4.75;;
41923;SDS011;27613;48.116;11.656;2024-03-02T01:43:40;7.18;;;5.32;;
41923;SDS011;27613;48.116;11.656;2024-03-02T01:46:06;7.65;;;5.18;;
41923;SDS011;27613;48.116;11.656;2024-03-02T01:48:31;7.32;;;4.97;;
41923;SDS011;27613;48.116;11.656;2024-03-02T01:50:57;9.32;;;4.82;;
41923;SDS011;27613;48.116;11.656;2024-03-02T01:53:22;7.55;;;5.28;;
41923;SDS011;27613;48.116;11.656;2024-03-02T01:55:48;8.40;;;5.15;;
41923;SDS011;27613;48.116;11.656;2024-03-02T01:58:14;8.25;;;4.68;;
41923;SDS011;27613;48.116;11.656;2024-03-02T02:00:40;14.18;;;4.95;;
41923;SDS011;27613;48.116;11.656;2024-03-02T02:03:05;7.85;;;5.07;;
41923;SDS011;27613;48.116;11.656;2024-03-02T02:05:31;8.27;;;4.72;;
41923;SDS011;27613;48.116;11.656;2024-03-02T02:07:57;6.68;;;4.35;;
41923;SDS011;27613;48.116;11.656;2024-03-02T02:10:23;6.53;;;4.47;;
41923;SDS011;27613;48.116;11.656;2024-03-02T02:12:49;7.85;;;4.80;;
41923;SDS011;27613;48.116;11.656;2024-03-02T02:15:21;7.28;;;4.55;;
41923;SDS011;27613;48.116;11.656;2024-03-02T02:17:47;7.70;;;4.72;;
41923;SDS011;27613;48.116;11.656;2024-03-02T02:20:12;6.22;;;4.47;;
41923;SDS011;27613;48.116;11.656;2024-03-02T02:22:37;5.55;;;4.15;;
41923;SDS011;27613;48.116;11.656;2024-03-02T02:25:03;7.32;;;4.55;;
41923;SDS011;27613;48.116;11.656;2024-03-02T02:27:29;7.97;;;5.07;;
41923;SDS011;27613;48.116;11.656;2024-03-02T02:29:55;5.97;;;4.47;;
41923;SDS011;27613;48.116;11.656;2024-03-02T02:32:21;6.30;;;4.43;;
41923;SDS011;27613;48.116;11.656;2024-03-02T02:34:46;6.50;;;4.32;;
41923;SDS011;27613;48.116;11.656;2024-03-02T02:37:16;7.35;;;4.90;;
41923;SDS011;27613;48.116;11.656;2024-03-02T02:39:42;6.75;;;4.65;;
41923;SDS011;27613;48.116;11.656;2024-03-02T02:42:08;7.53;;;4.90;;
41923;SDS011;27613;48.116;11.656;2024-03-02T02:44:34;7.65;;;5.13;;
41923;SDS011;27613;48.116;11.656;2024-03-02T02:46:59;7.97;;;5.03;;
41923;SDS011;27613;48.116;11.656;2024-03-02T02:49:25;6.82;;;4.72;;
41923;SDS011;27613;48.116;11.656;2024-03-02T02:51:50;7.55;;;4.80;;
41923;SDS011;27613;48.116;11.656;2024-03-02T02:54:16;6.57;;;4.95;;
41923;SDS011;27613;48.116;11.656;2024-03-02T02:56:41;7.13;;;5.15;;
41923;SDS011;27613;48.116;11.656;2024-03-02T02:59:07;6.18;;;4.90;;
41923;SDS011;27613;48.116;11.656;2024-03-02T03:01:32;9.68;;;5.72;;
41923;SDS011;27613;48.116;11.656;2024-03-02T03:03:58;7.40;;;5.22;;
41923;SDS011;27613;48.116;11.656;2024-03-02T03:06:23;8.20;;;6.00;;
41923;SDS011;27613;48.116;11.656;2024-03-02T03:08:49;9.52;;;4.95;;
41923;SDS011;27613;48.116;11.656;2024-03-02T03:11:14;7.65;;;5.15;;
41923;SDS011;27613;48.116;11.656;2024-03-02T03:13:40;6.47;;;4.90;;
41923;SDS011;27613;48.116;11.656;2024-03-02T03:16:05;7.70;;;5.65;;
41923;SDS011;27613;48.116;11.656;2024-03-02T03:18:31;9.75;;;5.57;;
41923;SDS011;27613;48.116;11.656;2024-03-02T03:20:56;7.38;;;5.18;;
41923;SDS011;27613;48.116;11.656;2024-03-02T03:23:22;6.63;;;5.05;;
41923;SDS011;27613;48.116;11.656;2024-03-02T03:25:47;8.32;;;5.40;;
41923;SDS011;27613;48.116;11.656;2024-03-02T03:28:13;7.97;;;5.43;;
41923;SDS011;27613;48.116;11.656;2024-03-02T03:30:38;9.30;;;5.72;;
41923;SDS011;27613;48.116;11.656;2024-03-02T03:33:05;9.63;;;5.53;;
41923;SDS011;27613;48.116;11.656;2024-03-02T03:35:33;8.13;;;5.90;;
41923;SDS011;27613;48.116;11.656;2024-03-02T03:37:59;9.45;;;5.43;;
41923;SDS011;27613;48.116;11.656;2024-03-02T03:40:25;7.65;;;4.82;;
41923;SDS011;27613;48.116;11.656;2024-03-02T03:42:51;7.60;;;5.68;;
41923;SDS011;27613;48.116;11.656;2024-03-02T03:45:17;8.45;;;5.70;;
41923;SDS011;27613;48.116;11.656;2024-03-02T03:47:42;7.55;;;5.07;;
41923;SDS011;27613;48.116;11.656;2024-03-02T03:50:08;8.77;;;5.53;;
41923;SDS011;27613;48.116;11.656;2024-03-02T03:52:34;9.40;;;5.78;;
41923;SDS011;27613;48.116;11.656;2024-03-02T03:54:59;7.80;;;5.38;;
41923;SDS011;27613;48.116;11.656;2024-03-02T03:57:25;9.32;;;5.40;;
41923;SDS011;27613;48.116;11.656;2024-03-02T03:59:51;8.18;;;5.22;;
41923;SDS011;27613;48.116;11.656;2024-03-02T04:02:17;7.38;;;5.38;;
41923;SDS011;27613;48.116;11.656;2024-03-02T04:04:43;7.18;;;5.25;;
41923;SDS011;27613;48.116;11.656;2024-03-02T04:07:08;8.10;;;5.63;;
41923;SDS011;27613;48.116;11.656;2024-03-02T04:09:34;9.15;;;5.63;;
41923;SDS011;27613;48.116;11.656;2024-03-02T04:11:59;8.02;;;5.95;;
41923;SDS011;27613;48.116;11.656;2024-03-02T04:14:25;8.80;;;5.72;;
41923;SDS011;27613;48.116;11.656;2024-03-02T04:16:50;7.57;;;5.65;;
41923;SDS011;27613;48.116;11.656;2024-03-02T04:19:16;10.68;;;7.00;;
41923;SDS011;27613;48.116;11.656;2024-03-02T04:21:42;8.60;;;6.22;;
41923;SDS011;27613;48.116;11.656;2024-03-02T04:24:07;7.68;;;5.75;;
41923;SDS011;27613;48.116;11.656;2024-03-02T04:26:33;9.15;;;6.18;;
41923;SDS011;27613;48.116;11.656;2024-03-02T04:28:58;7.25;;;5.90;;
41923;SDS011;27613;48.116;11.656;2024-03-02T04:31:24;9.73;;;6.10;;
41923;SDS011;27613;48.116;11.656;2024-03-02T04:33:49;8.80;;;6.20;;
41923;SDS011;27613;48.116;11.656;2024-03-02T04:36:15;7.90;;;5.55;;
41923;SDS011;27613;48.116;11.656;2024-03-02T04:38:40;9.55;;;6.05;;
41923;SDS011;27613;48.116;11.656;2024-03-02T04:41:07;9.15;;;6.07;;
41923;SDS011;27613;48.116;11.656;2024-03-02T04:43:32;8.60;;;6.57;;
41923;SDS011;27613;48.116;11.656;2024-03-02T04:45:59;11.15;;;6.47;;
41923;SDS011;27613;48.116;11.656;2024-03-02T04:48:25;7.63;;;5.57;;
41923;SDS011;27613;48.116;11.656;2024-03-02T04:50:50;8.60;;;6.07;;
41923;SDS011;27613;48.116;11.656;2024-03-02T04:53:16;9.18;;;6.45;;
41923;SDS011;27613;48.116;11.656;2024-03-02T04:55:41;9.45;;;6.70;;
41923;SDS011;27613;48.116;11.656;2024-03-02T04:58:07;10.38;;;6.45;;
41923;SDS011;27613;48.116;11.656;2024-03-02T05:00:33;8.77;;;6.30;;
41923;SDS011;27613;48.116;11.656;2024-03-02T05:02:59;8.43;;;6.28;;
41923;SDS011;27613;48.116;11.656;2024-03-02T05:05:24;7.97;;;6.15;;
41923;SDS011;27613;48.116;11.656;2024-03-02T05:07:49;12.32;;;7.22;;
41923;SDS011;27613;48.116;11.656;2024-03-02T05:10:15;10.40;;;7.40;;
41923;SDS011;27613;48.116;11.656;2024-03-02T05:12:41;8.32;;;6.38;;
41923;SDS011;27613;48.116;11.656;2024-03-02T05:15:07;8.60;;;6.28;;
41923;SDS011;27613;48.116;11.656;2024-03-02T05:17:35;9.07;;;6.53;;
41923;SDS011;27613;48.116;11.656;2024-03-02T05:20:00;8.98;;;6.82;;
41923;SDS011;27613;48.116;11.656;2024-03-02T05:22:26;11.43;;;6.35;;
41923;SDS011;27613;48.116;11.656;2024-03-02T05:24:52;9.68;;;6.75;;
41923;SDS011;27613;48.116;11.656;2024-03-02T05:27:17;10.18;;;7.15;;
41923;SDS011;27613;48.116;11.656;2024-03-02T05:29:43;10.63;;;7.10;;
41923;SDS011;27613;48.116;11.656;2024-03-02T05:32:08;11.77;;;7.53;;
41923;SDS011;27613;48.116;11.656;2024-03-02T05:34:34;10.50;;;6.78;;
41923;SDS011;27613;48.116;11.656;2024-03-02T05:37:00;10.85;;;7.35;;
41923;SDS011;27613;48.116;11.656;2024-03-02T05:39:26;10.52;;;7.28;;
41923;SDS011;27613;48.116;11.656;2024-03-02T05:41:52;11.18;;;7.38;;
41923;SDS011;27613;48.116;11.656;2024-03-02T05:44:17;11.23;;;7.75;;
41923;SDS011;27613;48.116;11.656;2024-03-02T05:46:43;10.20;;;6.85;;
41923;SDS011;27613;48.116;11.656;2024-03-02T05:49:09;8.60;;;6.47;;
41923;SDS011;27613;48.116;11.656;2024-03-02T05:51:35;9.82;;;6.97;;
41923;SDS011;27613;48.116;11.656;2024-03-02T05:54:00;9.85;;;6.90;;
41923;SDS011;27613;48.116;11.656;2024-03-02T05:56:26;10.10;;;7.18;;
41923;SDS011;27613;48.116;11.656;2024-03-02T05:58:52;9.50;;;6.85;;
41923;SDS011;27613;48.116;11.656;2024-03-02T06:01:36;10.55;;;7.15;;
41923;SDS011;27613;48.116;11.656;2024-03-02T06:04:02;10.38;;;7.55;;
41923;SDS011;27613;48.116;11.656;2024-03-02T06:06:27;10.65;;;7.47;;
41923;SDS011;27613;48.116;11.656;2024-03-02T06:08:53;10.48;;;7.30;;
41923;SDS011;27613;48.116;11.656;2024-03-02T06:11:19;12.07;;;7.00;;
41923;SDS011;27613;48.116;11.656;2024-03-02T06:13:45;9.95;;;6.93;;
41923;SDS011;27613;48.116;11.656;2024-03-02T06:16:10;12.45;;;7.90;;
41923;SDS011;27613;48.116;11.656;2024-03-02T06:18:36;11.05;;;7.70;;
41923;SDS011;27613;48.116;11.656;2024-03-02T06:21:01;10.25;;;7.45;;
41923;SDS011;27613;48.116;11.656;2024-03-02T06:23:27;12.82;;;7.93;;
41923;SDS011;27613;48.116;11.656;2024-03-02T06:25:53;9.50;;;6.97;;
41923;SDS011;27613;48.116;11.656;2024-03-02T06:28:19;12.40;;;8.27;;
41923;SDS011;27613;48.116;11.656;2024-03-02T06:30:44;12.65;;;7.82;;
41923;SDS011;27613;48.116;11.656;2024-03-02T06:33:10;11.85;;;7.93;;
41923;SDS011;27613;48.116;11.656;2024-03-02T06:35:35;12.00;;;8.10;;
41923;SDS011;27613;48.116;11.656;2024-03-02T06:38:01;16.60;;;7.90;;
41923;SDS011;27613;48.116;11.656;2024-03-02T06:40:27;15.43;;;8.45;;
41923;SDS011;27613;48.116;11.656;2024-03-02T06:42:53;12.73;;;8.43;;
41923;SDS011;27613;48.116;11.656;2024-03-02T06:45:18;15.18;;;7.72;;
41923;SDS011;27613;48.116;11.656;2024-03-02T06:47:44;11.85;;;7.90;;
41923;SDS011;27613;48.116;11.656;2024-03-02T06:50:09;12.13;;;7.80;;
41923;SDS011;27613;48.116;11.656;2024-03-02T06:52:35;9.27;;;7.05;;
41923;SDS011;27613;48.116;11.656;2024-03-02T06:55:01;10.77;;;7.50;;
41923;SDS011;27613;48.116;11.656;2024-03-02T06:57:27;14.25;;;7.68;;
41923;SDS011;27613;48.116;11.656;2024-03-02T06:59:52;13.20;;;7.43;;
41923;SDS011;27613;48.116;11.656;2024-03-02T07:02:22;12.00;;;8.43;;
41923;SDS011;27613;48.116;11.656;2024-03-02T07:04:48;9.75;;;7.22;;
41923;SDS011;27613;48.116;11.656;2024-03-02T07:07:13;12.90;;;8.15;;
41923;SDS011;27613;48.116;11.656;2024-03-02T07:09:39;11.13;;;7.50;;
41923;SDS011;27613;48.116;11.656;2024-03-02T07:12:04;9.50;;;7.13;;
41923;SDS011;27613;48.116;11.656;2024-03-02T07:14:30;10.77;;;7.25;;
41923;SDS011;27613;48.116;11.656;2024-03-02T07:17:14;14.18;;;7.32;;
41923;SDS011;27613;48.116;11.656;2024-03-02T07:19:40;10.38;;;7.28;;
41923;SDS011;27613;48.116;11.656;2024-03-02T07:22:06;12.02;;;7.68;;
41923;SDS011;27613;48.116;11.656;2024-03-02T07:24:38;11.93;;;7.78;;
41923;SDS011;27613;48.116;11.656;2024-03-02T07:27:07;12.05;;;7.35;;
41923;SDS011;27613;48.116;11.656;2024-03-02T07:29:34;12.40;;;7.18;;
41923;SDS011;27613;48.116;11.656;2024-03-02T07:31:59;12.50;;;7.97;;
41923;SDS011;27613;48.116;11.656;2024-03-02T07:34:25;10.27;;;7.13;;
41923;SDS011;27613;48.116;11.656;2024-03-02T07:36:50;10.30;;;6.88;;
41923;SDS011;27613;48.116;11.656;2024-03-02T07:39:16;10.80;;;7.50;;
41923;SDS011;27613;48.116;11.656;2024-03-02T07:41:41;9.77;;;6.97;;
41923;SDS011;27613;48.116;11.656;2024-03-02T07:44:07;10.30;;;7.90;;
41923;SDS011;27613;48.116;11.656;2024-03-02T07:46:33;16.20;;;9.05;;
41923;SDS011;27613;48.116;11.656;2024-03-02T07:48:58;9.93;;;6.53;;
41923;SDS011;27613;48.116;11.656;2024-03-02T07:51:24;12.57;;;7.50;;
41923;SDS011;27613;48.116;11.656;2024-03-02T07:53:49;12.60;;;7.43;;
41923;SDS011;27613;48.116;11.656;2024-03-02T07:56:15;10.68;;;7.40;;
41923;SDS011;27613;48.116;11.656;2024-03-02T07:58:47;9.65;;;6.60;;
41923;SDS011;27613;48.116;11.656;2024-03-02T08:01:14;9.25;;;6.78;;
41923;SDS011;27613;48.116;11.656;2024-03-02T08:03:39;10.73;;;7.50;;
41923;SDS011;27613;48.116;11.656;2024-03-02T08:06:05;10.70;;;7.22;;
41923;SDS011;27613;48.116;11.656;2024-03-02T08:08:31;11.63;;;7.63;;
41923;SDS011;27613;48.116;11.656;2024-03-02T08:10:56;15.55;;;7.97;;
41923;SDS011;27613;48.116;11.656;2024-03-02T08:13:22;17.13;;;7.47;;
41923;SDS011;27613;48.116;11.656;2024-03-02T08:18:15;10.80;;;7.40;;
41923;SDS011;27613;48.116;11.656;2024-03-02T08:20:41;11.85;;;7.80;;
41923;SDS011;27613;48.116;11.656;2024-03-02T08:23:06;12.05;;;6.65;;
41923;SDS011;27613;48.116;11.656;2024-03-02T08:25:33;11.85;;;7.40;;
41923;SDS011;27613;48.116;11.656;2024-03-02T08:27:58;9.77;;;6.90;;
41923;SDS011;27613;48.116;11.656;2024-03-02T08:30:24;10.07;;;6.63;;
41923;SDS011;27613;48.116;11.656;2024-03-02T08:32:49;10.18;;;7.13;;
41923;SDS011;27613;48.116;11.656;2024-03-02T08:35:15;10.60;;;6.97;;
41923;SDS011;27613;48.116;11.656;2024-03-02T08:37:42;10.15;;;6.63;;
41923;SDS011;27613;48.116;11.656;2024-03-02T08:40:08;8.52;;;6.00;;
41923;SDS011;27613;48.116;11.656;2024-03-02T08:42:35;8.30;;;6.32;;
41923;SDS011;27613;48.116;11.656;2024-03-02T08:45:01;10.75;;;6.53;;
41923;SDS011;27613;48.116;11.656;2024-03-02T08:47:27;11.10;;;6.68;;
41923;SDS011;27613;48.116;11.656;2024-03-02T08:49:52;16.55;;;6.72;;
41923;SDS011;27613;48.116;11.656;2024-03-02T08:52:18;8.77;;;5.22;;
41923;SDS011;27613;48.116;11.656;2024-03-02T08:54:44;8.23;;;4.95;;
41923;SDS011;27613;48.116;11.656;2024-03-02T08:57:09;6.60;;;4.82;;
41923;SDS011;27613;48.116;11.656;2024-03-02T08:59:35;9.57;;;5.03;;
41923;SDS011;27613;48.116;11.656;2024-03-02T09:02:00;7.03;;;4.57;;
41923;SDS011;27613;48.116;11.656;2024-03-02T09:04:26;5.10;;;3.70;;
41923;SDS011;27613;48.116;11.656;2024-03-02T09:06:52;4.70;;;3.60;;
41923;SDS011;27613;48.116;11.656;2024-03-02T09:09:18;5.28;;;3.80;;
41923;SDS011;27613;48.116;11.656;2024-03-02T09:11:43;6.40;;;3.92;;
41923;SDS011;27613;48.116;11.656;2024-03-02T09:14:10;5.65;;;3.53;;
41923;SDS011;27613;48.116;11.656;2024-03-02T09:16:36;3.85;;;3.00;;
41923;SDS011;27613;48.116;11.656;2024-03-02T09:19:01;4.20;;;3.10;;
41923;SDS011;27613;48.116;11.656;2024-03-02T09:21:27;4.47;;;3.15;;
41923;SDS011;27613;48.116;11.656;2024-03-02T09:23:54;4.05;;;3.40;;
41923;SDS011;27613;48.116;11.656;2024-03-02T09:26:20;3.70;;;2.80;;
41923;SDS011;27613;48.116;11.656;2024-03-02T09:28:46;6.22;;;4.55;;
41923;SDS011;27613;48.116;11.656;2024-03-02T09:31:11;8.27;;;5.15;;
41923;SDS011;27613;48.116;11.656;2024-03-02T09:33:37;23.17;;;11.65;;
41923;SDS011;27613;48.116;11.656;2024-03-02T09:36:04;42.53;;;25.17;;
41923;SDS011;27613;48.116;11.656;2024-03-02T09:38:31;44.55;;;30.17;;
41923;SDS011;27613;48.116;11.656;2024-03-02T09:40:59;9.82;;;8.23;;
41923;SDS011;27613;48.116;11.656;2024-03-02T09:43:26;6.68;;;4.57;;
41923;SDS011;27613;48.116;11.656;2024-03-02T09:45:51;6.53;;;3.78;;
41923;SDS011;27613;48.116;11.656;2024-03-02T09:48:18;5.35;;;3.95;;
41923;SDS011;27613;48.116;11.656;2024-03-02T09:50:45;6.43;;;4.00;;
41923;SDS011;27613;48.116;11.656;2024-03-02T09:53:11;5.78;;;4.43;;
41923;SDS011;27613;48.116;11.656;2024-03-02T09:55:37;8.43;;;4.38;;
41923;SDS011;27613;48.116;11.656;2024-03-02T09:58:04;6.75;;;4.53;;
41923;SDS011;27613;48.116;11.656;2024-03-02T10:00:29;5.13;;;3.85;;
41923;SDS011;27613;48.116;11.656;2024-03-02T10:02:55;7.53;;;4.10;;
41923;SDS011;27613;48.116;11.656;2024-03-02T10:05:26;5.10;;;3.88;;
41923;SDS011;27613;48.116;11.656;2024-03-02T10:07:59;4.90;;;3.20;;
41923;SDS011;27613;48.116;11.656;2024-03-02T10:10:35;5.05;;;3.72;;
41923;SDS011;27613;48.116;11.656;2024-03-02T10:13:04;6.20;;;4.60;;
41923;SDS011;27613;48.116;11.656;2024-03-02T10:15:31;6.85;;;5.45;;
41923;SDS011;27613;48.116;11.656;2024-03-02T10:17:57;5.70;;;4.32;;
41923;SDS011;27613;48.116;11.656;2024-03-02T10:20:26;5.78;;;4.20;;
41923;SDS011;27613;48.116;11.656;2024-03-02T10:22:54;7.00;;;4.60;;
41923;SDS011;27613;48.116;11.656;2024-03-02T10:25:32;5.80;;;4.57;;
41923;SDS011;27613;48.116;11.656;2024-03-02T10:27:58;6.45;;;4.70;;
41923;SDS011;27613;48.116;11.656;2024-03-02T10:30:30;6.97;;;4.60;;
41923;SDS011;27613;48.116;11.656;2024-03-02T10:32:55;7.28;;;5.03;;
41923;SDS011;27613;48.116;11.656;2024-03-02T10:35:24;10.05;;;5.82;;
41923;SDS011;27613;48.116;11.656;2024-03-02T10:37:51;8.35;;;5.65;;
41923;SDS011;27613;48.116;11.656;2024-03-02T10:40:18;9.32;;;6.00;;
41923;SDS011;27613;48.116;11.656;2024-03-02T10:42:46;7.85;;;6.38;;
41923;SDS011;27613;48.116;11.656;2024-03-02T10:45:12;8.70;;;6.18;;
41923;SDS011;27613;48.116;11.656;2024-03-02T10:47:40;8.88;;;6.30;;
41923;SDS011;27613;48.116;11.656;2024-03-02T10:50:07;8.82;;;6.43;;
41923;SDS011;27613;48.116;11.656;2024-03-02T10:52:34;9.55;;;6.88;;
41923;SDS011;27613;48.116;11.656;2024-03-02T10:55:00;10.95;;;6.32;;
41923;SDS011;27613;48.116;11.656;2024-03-02T10:57:26;7.30;;;5.65;;
41923;SDS011;27613;48.116;11.656;2024-03-02T11:00:01;9.82;;;5.55;;
41923;SDS011;27613;48.116;11.656;2024-03-02T11:02:28;11.52;;;4.93;;
41923;SDS011;27613;48.116;11.656;2024-03-02T11:04:56;11.48;;;5.90;;
41923;SDS011;27613;48.116;11.656;2024-03-02T11:07:24;7.68;;;5.32;;
41923;SDS011;27613;48.116;11.656;2024-03-02T11:09:57;8.77;;;4.95;;
41923;SDS011;27613;48.116;11.656;2024-03-02T11:12:35;7.60;;;5.28;;
41923;SDS011;27613;48.116;11.656;2024-03-02T11:15:04;7.68;;;5.30;;
41923;SDS011;27613;48.116;11.656;2024-03-02T11:17:34;7.05;;;4.70;;
41923;SDS011;27613;48.116;11.656;2024-03-02T11:20:02;8.70;;;4.35;;
41923;SDS011;27613;48.116;11.656;2024-03-02T11:22:33;6.70;;;4.75;;
41923;SDS011;27613;48.116;11.656;2024-03-02T11:25:00;7.60;;;4.40;;
41923;SDS011;27613;48.116;11.656;2024-03-02T11:27:58;5.50;;;4.47;;
41923;SDS011;27613;48.116;11.656;2024-03-02T11:35:25;6.60;;;4.85;;
41923;SDS011;27613;48.116;11.656;2024-03-02T11:37:54;6.10;;;4.25;;
41923;SDS011;27613;48.116;11.656;2024-03-02T11:40:23;6.80;;;4.65;;
41923;SDS011;27613;48.116;11.656;2024-03-02T11:42:50;7.00;;;4.47;;
41923;SDS011;27613;48.116;11.656;2024-03-02T11:45:22;6.03;;;4.35;;
41923;SDS011;27613;48.116;11.656;2024-03-02T11:47:55;5.35;;;4.03;;
41923;SDS011;27613;48.116;11.656;2024-03-02T11:53:22;7.40;;;5.18;;
41923;SDS011;27613;48.116;11.656;2024-03-02T11:55:48;8.68;;;5.13;;
41923;SDS011;27613;48.116;11.656;2024-03-02T11:58:15;5.72;;;4.78;;
41923;SDS011;27613;48.116;11.656;2024-03-02T12:00:45;7.30;;;5.18;;
41923;SDS011;27613;48.116;11.656;2024-03-02T12:03:12;8.13;;;5.68;;
41923;SDS011;27613;48.116;11.656;2024-03-02T12:05:40;6.85;;;5.07;;
41923;SDS011;27613;48.116;11.656;2024-03-02T12:08:07;7.38;;;5.20;;
41923;SDS011;27613;48.116;11.656;2024-03-02T12:10:33;11.45;;;7.43;;
41923;SDS011;27613;48.116;11.656;2024-03-02T12:13:04;8.07;;;4.72;;
41923;SDS011;27613;48.116;11.656;2024-03-02T12:15:36;7.80;;;5.68;;
41923;SDS011;27613;48.116;11.656;2024-03-02T12:18:03;7.90;;;5.50;;
41923;SDS011;27613;48.116;11.656;2024-03-02T12:20:30;8.63;;;5.53;;
41923;SDS011;27613;48.116;11.656;2024-03-02T12:23:00;5.75;;;4.55;;
41923;SDS011;27613;48.116;11.656;2024-03-02T12:25:27;7.85;;;4.35;;
41923;SDS011;27613;48.116;11.656;2024-03-02T12:27:54;7.53;;;4.43;;
41923;SDS011;27613;48.116;11.656;2024-03-02T12:30:21;9.43;;;5.63;;
41923;SDS011;27613;48.116;11.656;2024-03-02T12:32:47;6.93;;;4.80;;
41923;SDS011;27613;48.116;11.656;2024-03-02T12:35:13;8.10;;;4.93;;
41923;SDS011;27613;48.116;11.656;2024-03-02T12:37:42;7.82;;;5.15;;
41923;SDS011;27613;48.116;11.656;2024-03-02T12:40:13;7.97;;;4.80;;
41923;SDS011;27613;48.116;11.656;2024-03-02T12:42:39;8.23;;;4.47;;
41923;SDS011;27613;48.116;11.656;2024-03-02T12:45:07;6.35;;;4.00;;
41923;SDS011;27613;48.116;11.656;2024-03-02T12:47:33;6.03;;;4.20;;
41923;SDS011;27613;48.116;11.656;2024-03-02T12:49:59;9.15;;;6.00;;
41923;SDS011;27613;48.116;11.656;2024-03-02T12:52:25;11.82;;;5.53;;
41923;SDS011;27613;48.116;11.656;2024-03-02T12:54:51;8.15;;;4.50;;
41923;SDS011;27613;48.116;11.656;2024-03-02T12:57:20;7.82;;;4.38;;
41923;SDS011;27613;48.116;11.656;2024-03-02T12:59:46;5.53;;;4.32;;
41923;SDS011;27613;48.116;11.656;2024-03-02T13:02:18;9.95;;;4.18;;
41923;SDS011;27613;48.116;11.656;2024-03-02T13:04:51;7.32;;;3.88;;
41923;SDS011;27613;48.116;11.656;2024-03-02T13:07:21;6.00;;;3.00;;
41923;SDS011;27613;48.116;11.656;2024-03-02T13:09:50;5.88;;;2.80;;
41923;SDS011;27613;48.116;11.656;2024-03-02T13:12:16;4.35;;;2.20;;
41923;SDS011;27613;48.116;11.656;2024-03-02T13:14:42;4.78;;;2.88;;
41923;SDS011;27613;48.116;11.656;2024-03-02T13:17:08;6.13;;;4.10;;
41923;SDS011;27613;48.116;11.656;2024-03-02T13:19:34;7.00;;;5.38;;
41923;SDS011;27613;48.116;11.656;2024-03-02T13:22:00;6.55;;;5.20;;
41923;SDS011;27613;48.116;11.656;2024-03-02T13:24:28;7.10;;;5.18;;
41923;SDS011;27613;48.116;11.656;2024-03-02T13:26:54;7.80;;;4.93;;
41923;SDS011;27613;48.116;11.656;2024-03-02T13:29:22;6.88;;;5.38;;
41923;SDS011;27613;48.116;11.656;2024-03-02T13:31:47;9.68;;;6.65;;
41923;SDS011;27613;48.116;11.656;2024-03-02T13:34:13;8.80;;;6.72;;
41923;SDS011;27613;48.116;11.656;2024-03-02T13:36:39;8.57;;;6.32;;
41923;SDS011;27613;48.116;11.656;2024-03-02T13:39:05;9.63;;;6.75;;
41923;SDS011;27613;48.116;11.656;2024-03-02T13:41:31;9.18;;;6.07;;
41923;SDS011;27613;48.116;11.656;2024-03-02T13:43:57;8.43;;;6.47;;
41923;SDS011;27613;48.116;11.656;2024-03-02T13:46:26;7.15;;;5.55;;
41923;SDS011;27613;48.116;11.656;2024-03-02T13:48:51;8.40;;;6.28;;
41923;SDS011;27613;48.116;11.656;2024-03-02T13:51:17;9.55;;;6.70;;
41923;SDS011;27613;48.116;11.656;2024-03-02T13:53:43;10.27;;;6.70;;
41923;SDS011;27613;48.116;11.656;2024-03-02T13:56:08;8.18;;;5.82;;
41923;SDS011;27613;48.116;11.656;2024-03-02T13:58:34;4.70;;;3.47;;
41923;SDS011;27613;48.116;11.656;2024-03-02T14:01:00;5.00;;;3.03;;
41923;SDS011;27613;48.116;11.656;2024-03-02T14:03:26;5.65;;;3.70;;
41923;SDS011;27613;48.116;11.656;2024-03-02T14:05:52;6.95;;;3.78;;
41923;SDS011;27613;48.116;11.656;2024-03-02T14:08:18;6.35;;;4.18;;
41923;SDS011;27613;48.116;11.656;2024-03-02T14:10:43;8.45;;;6.10;;
41923;SDS011;27613;48.116;11.656;2024-03-02T14:13:09;9.05;;;6.47;;
41923;SDS011;27613;48.116;11.656;2024-03-02T14:15:35;9.63;;;6.50;;
41923;SDS011;27613;48.116;11.656;2024-03-02T14:18:03;8.27;;;6.22;;
41923;SDS011;27613;48.116;11.656;2024-03-02T14:20:29;8.43;;;6.82;;
41923;SDS011;27613;48.116;11.656;2024-03-02T14:22:55;13.07;;;7.00;;
41923;SDS011;27613;48.116;11.656;2024-03-02T14:25:20;8.80;;;5.93;;
41923;SDS011;27613;48.116;11.656;2024-03-02T14:27:46;9.68;;;5.88;;
41923;SDS011;27613;48.116;11.656;2024-03-02T14:30:12;9.23;;;6.10;;
41923;SDS011;27613;48.116;11.656;2024-03-02T14:32:38;9.57;;;5.90;;
41923;SDS011;27613;48.116;11.656;2024-03-02T14:35:03;4.50;;;3.80;;
41923;SDS011;27613;48.116;11.656;2024-03-02T14:37:29;4.95;;;3.53;;